createdAt,value
2018-06-02T00:00:28.686Z,22.30
2018-06-02T00:02:57.137Z,25.77
2018-06-02T00:05:26.426Z,25.23
2018-06-02T00:07:55.336Z,25.97
2018-06-02T00:10:24.525Z,24.17
2018-06-02T00:12:54.067Z,24.40
2018-06-02T00:15:24.885Z,30.67
2018-06-02T00:17:53.567Z,27.95
2018-06-02T00:20:23.643Z,24.17
2018-06-02T00:22:52.082Z,27.62
2018-06-02T00:25:20.505Z,30.48
2018-06-02T00:27:51.225Z,32.03
2018-06-02T00:30:19.609Z,25.43
2018-06-02T00:32:48.038Z,27.25
2018-06-02T00:35:16.412Z,29.63
2018-06-02T00:37:44.894Z,31.55
2018-06-02T00:40:13.827Z,28.33
2018-06-02T00:42:43.324Z,25.98
2018-06-02T00:45:12.805Z,27.47
2018-06-02T00:47:41.246Z,28.48
2018-06-02T00:50:12.274Z,30.05
2018-06-02T00:52:41.972Z,29.57
2018-06-02T00:55:11.465Z,29.43
2018-06-02T00:57:40.570Z,31.83
2018-06-02T01:00:09.849Z,33.90
2018-06-02T01:02:39.906Z,33.90
2018-06-02T01:05:09.222Z,34.45
2018-06-02T01:07:38.665Z,37.37
2018-06-02T01:10:07.025Z,40.37
2018-06-02T01:12:36.096Z,40.43
2018-06-02T01:15:06.127Z,43.15
2018-06-02T01:17:34.486Z,42.38
2018-06-02T01:20:03.977Z,44.77
2018-06-02T01:22:33.249Z,45.97
2018-06-02T01:25:03.305Z,43.33
2018-06-02T01:27:32.088Z,44.57
2018-06-02T01:30:02.098Z,44.40
2018-06-02T01:32:31.560Z,44.23
2018-06-02T01:34:59.945Z,47.67
2018-06-02T01:37:29.086Z,47.60
2018-06-02T01:39:57.524Z,48.70
2018-06-02T01:42:26.888Z,48.17
2018-06-02T01:44:56.328Z,51.83
2018-06-02T01:47:25.535Z,48.17
2018-06-02T01:49:54.709Z,49.47
2018-06-02T01:52:24.051Z,40.80
2018-06-02T01:54:52.836Z,47.03
2018-06-02T01:57:21.228Z,44.20
2018-06-02T01:59:49.687Z,46.47
2018-06-02T02:02:18.854Z,42.03
2018-06-02T02:04:47.545Z,40.90
2018-06-02T02:07:15.933Z,39.57
2018-06-02T02:09:44.754Z,42.75
2018-06-02T02:12:13.130Z,39.63
2018-06-02T02:14:42.468Z,37.43
2018-06-02T02:17:11.253Z,38.43
2018-06-02T02:19:39.598Z,43.30
2018-06-02T02:22:08.603Z,41.40
2018-06-02T02:24:38.041Z,37.63
2018-06-02T02:27:06.396Z,40.87
2018-06-02T02:29:34.777Z,39.40
2018-06-02T02:32:03.180Z,37.20
2018-06-02T02:34:31.595Z,38.13
2018-06-02T02:37:00.845Z,43.20
2018-06-02T02:39:29.185Z,41.37
2018-06-02T02:41:58.326Z,38.63
2018-06-02T02:44:27.695Z,39.80
2018-06-02T02:46:57.070Z,42.97
2018-06-02T02:49:27.086Z,44.63
2018-06-02T02:51:58.422Z,40.07
2018-06-02T02:54:27.236Z,40.73
2018-06-02T02:56:57.043Z,41.23
2018-06-02T02:59:26.200Z,39.40
2018-06-02T03:01:55.259Z,40.77
2018-06-02T03:04:24.458Z,41.13
2018-06-02T03:06:52.905Z,39.07
2018-06-02T03:09:22.067Z,40.17
2018-06-02T03:11:50.981Z,39.83
2018-06-02T03:14:19.316Z,42.13
2018-06-02T03:16:47.717Z,41.47
2018-06-02T03:19:16.126Z,38.77
2018-06-02T03:21:46.491Z,40.93
2018-06-02T03:24:14.849Z,43.40
2018-06-02T03:26:43.252Z,42.63
2018-06-02T03:29:11.604Z,42.17
2018-06-02T03:31:40.049Z,41.53
2018-06-02T03:34:08.414Z,42.07
2018-06-02T03:36:36.767Z,46.10
2018-06-02T03:39:05.909Z,46.17
2018-06-02T03:41:34.267Z,49.97
2018-06-02T03:44:04.098Z,43.80
2018-06-02T03:46:32.738Z,48.90
2018-06-02T03:49:01.099Z,54.10
2018-06-02T03:51:29.471Z,49.07
2018-06-02T03:53:57.871Z,49.47
2018-06-02T03:56:26.260Z,52.77
2018-06-02T03:58:55.454Z,50.73
2018-06-02T04:01:23.805Z,60.23
2018-06-02T04:03:52.195Z,57.10
2018-06-02T04:06:20.567Z,62.03
2018-06-02T04:08:48.952Z,51.10
2018-06-02T04:11:17.959Z,53.57
2018-06-02T04:13:46.439Z,48.90
2018-06-02T04:16:15.576Z,52.07
2018-06-02T04:18:43.946Z,53.33
2018-06-02T04:21:13.373Z,54.70
2018-06-02T04:23:42.489Z,54.70
2018-06-02T04:26:12.365Z,55.93
2018-06-02T04:28:41.740Z,59.80
2018-06-02T04:31:10.134Z,58.00
2018-06-02T04:33:39.545Z,61.77
2018-06-02T04:36:08.921Z,66.10
2018-06-02T04:38:38.137Z,60.07
2018-06-02T04:41:06.754Z,60.87
2018-06-02T04:43:35.150Z,57.77
2018-06-02T04:46:04.266Z,66.07
2018-06-02T04:48:33.022Z,62.30
2018-06-02T04:51:02.299Z,59.80
2018-06-02T04:53:31.898Z,62.60
2018-06-02T04:56:00.345Z,60.73
2018-06-02T04:58:29.441Z,62.77
2018-06-02T05:00:58.720Z,64.63
2018-06-02T05:03:28.694Z,57.60
2018-06-02T05:05:57.346Z,57.17
2018-06-02T05:08:26.548Z,56.70
2018-06-02T05:10:54.948Z,54.30
2018-06-02T05:13:24.022Z,55.23
2018-06-02T05:15:52.399Z,55.40
2018-06-02T05:18:20.757Z,49.40
2018-06-02T05:20:49.131Z,53.33
2018-06-02T05:23:17.536Z,46.37
2018-06-02T05:25:46.705Z,51.83
2018-06-02T05:28:15.836Z,47.97
2018-06-02T05:30:44.752Z,52.37
2018-06-02T05:33:13.782Z,51.23
2018-06-02T05:35:42.707Z,51.20
2018-06-02T05:38:11.200Z,52.00
2018-06-02T05:40:40.389Z,55.63
2018-06-02T05:43:08.827Z,52.10
2018-06-02T05:45:37.991Z,53.87
2018-06-02T05:48:06.485Z,58.47
2018-06-02T05:50:34.869Z,55.57
2018-06-02T05:53:03.286Z,54.00
2018-06-02T05:55:31.687Z,57.50
2018-06-02T05:58:01.045Z,54.80
2018-06-02T06:00:30.272Z,55.47
2018-06-02T06:02:59.548Z,51.50
2018-06-02T06:05:28.721Z,53.23
2018-06-02T06:07:57.974Z,48.87
2018-06-02T06:10:26.358Z,50.17
2018-06-02T06:12:54.745Z,55.00
2018-06-02T06:15:23.936Z,51.83
2018-06-02T06:17:52.294Z,51.13
2018-06-02T06:20:20.736Z,52.00
2018-06-02T06:22:51.191Z,52.93
2018-06-02T06:25:19.565Z,49.97
2018-06-02T06:27:48.687Z,51.23
2018-06-02T06:30:17.648Z,48.57
2018-06-02T06:32:47.521Z,50.33
2018-06-02T06:35:15.989Z,58.10
2018-06-02T06:37:44.537Z,52.17
2018-06-02T06:40:14.136Z,51.70
2018-06-02T06:42:44.515Z,49.47
2018-06-02T06:45:12.950Z,55.90
2018-06-02T06:47:42.771Z,49.27
2018-06-02T06:50:11.434Z,53.57
2018-06-02T06:52:41.317Z,47.63
2018-06-02T06:55:09.812Z,48.93
2018-06-02T06:57:38.199Z,46.67
2018-06-02T07:00:07.325Z,45.97
2018-06-02T07:02:35.705Z,44.60
2018-06-02T07:05:04.049Z,43.30
2018-06-02T07:07:33.036Z,43.77
2018-06-02T07:10:01.983Z,40.50
2018-06-02T07:12:30.442Z,45.40
2018-06-02T07:14:58.795Z,41.70
2018-06-02T07:17:27.185Z,42.40
2018-06-02T07:19:56.392Z,37.53
2018-06-02T07:22:24.909Z,39.53
2018-06-02T07:24:54.034Z,33.97
2018-06-02T07:27:23.415Z,40.13
2018-06-02T07:29:51.816Z,35.90
2018-06-02T07:32:20.804Z,35.43
2018-06-02T07:34:49.176Z,43.67
2018-06-02T07:37:17.523Z,41.67
2018-06-02T07:39:45.926Z,40.27
2018-06-02T07:42:15.067Z,41.13
2018-06-02T07:44:43.695Z,44.57
2018-06-02T07:47:13.119Z,44.13
2018-06-02T07:49:41.671Z,41.70
2018-06-02T07:52:10.017Z,43.37
2018-06-02T07:54:39.138Z,43.13
2018-06-02T07:57:08.180Z,42.93
2018-06-02T07:59:36.541Z,42.30
2018-06-02T08:02:04.920Z,41.33
2018-06-02T08:04:33.299Z,44.33
2018-06-02T08:07:01.871Z,44.53
2018-06-02T08:09:30.251Z,46.77
2018-06-02T08:11:58.727Z,40.20
2018-06-02T08:14:27.098Z,45.07
2018-06-02T08:16:55.821Z,41.73
2018-06-02T08:19:24.459Z,40.10
2018-06-02T08:21:53.735Z,45.88
2018-06-02T08:24:23.194Z,44.83
2018-06-02T08:26:52.480Z,46.17
2018-06-02T08:29:20.868Z,45.87
2018-06-02T08:31:50.209Z,44.20
2018-06-02T08:34:20.075Z,46.97
2018-06-02T08:36:48.985Z,47.97
2018-06-02T08:39:17.991Z,46.13
2018-06-02T08:41:46.859Z,47.53
2018-06-02T08:44:16.232Z,46.30
2018-06-02T08:46:45.218Z,47.03
2018-06-02T08:49:15.218Z,47.43
2018-06-02T08:51:44.842Z,45.83
2018-06-02T08:54:13.956Z,45.50
2018-06-02T08:56:41.779Z,45.90
2018-06-02T08:59:11.083Z,47.53
2018-06-02T09:01:40.286Z,44.77
2018-06-02T09:04:09.486Z,49.90
2018-06-02T09:06:38.831Z,44.43
2018-06-02T09:09:08.117Z,44.70
2018-06-02T09:11:36.467Z,40.43
2018-06-02T09:14:05.819Z,43.83
2018-06-02T09:16:34.203Z,42.40
2018-06-02T09:19:03.771Z,37.60
2018-06-02T09:21:32.977Z,35.10
2018-06-02T09:24:01.887Z,37.20
2018-06-02T09:26:30.376Z,37.23
2018-06-02T09:28:59.360Z,37.07
2018-06-02T09:31:28.745Z,39.03
2018-06-02T09:33:57.225Z,38.30
2018-06-02T09:36:25.615Z,35.13
2018-06-02T09:38:53.994Z,37.63
2018-06-02T09:41:23.376Z,32.60
2018-06-02T09:43:51.839Z,33.63
2018-06-02T09:46:21.155Z,31.40
2018-06-02T09:48:49.895Z,33.63
2018-06-02T09:51:18.765Z,30.90
2018-06-02T09:53:47.120Z,32.57
2018-06-02T09:56:16.075Z,32.47
2018-06-02T09:58:45.068Z,30.97
2018-06-02T10:01:13.524Z,30.27
2018-06-02T10:03:41.895Z,30.50
2018-06-02T10:06:10.439Z,31.53
2018-06-02T10:08:40.139Z,33.93
2018-06-02T10:11:09.866Z,29.42
2018-06-02T10:13:38.452Z,28.97
2018-06-02T10:16:06.905Z,27.03
2018-06-02T10:18:36.726Z,30.67
2018-06-02T10:21:05.850Z,31.77
2018-06-02T10:23:34.465Z,29.47
2018-06-02T10:26:02.899Z,28.83
2018-06-02T10:28:31.319Z,26.40
2018-06-02T10:31:02.867Z,26.47
2018-06-02T10:33:31.644Z,28.57
2018-06-02T10:36:00.100Z,28.47
2018-06-02T10:38:30.075Z,26.47
2018-06-02T10:40:58.512Z,26.53
2018-06-02T10:43:27.607Z,27.83
2018-06-02T10:45:57.085Z,28.52
2018-06-02T10:48:28.356Z,28.90
2018-06-02T10:50:56.795Z,29.80
2018-06-02T10:53:25.164Z,27.70
2018-06-02T10:55:53.546Z,26.30
2018-06-02T10:58:21.960Z,29.73
2018-06-02T11:00:50.293Z,31.73
2018-06-02T11:03:19.414Z,30.13
2018-06-02T11:05:48.540Z,26.47
2018-06-02T11:08:17.017Z,30.47
2018-06-02T11:10:45.498Z,29.20
2018-06-02T11:13:14.254Z,22.17
2018-06-02T11:15:42.676Z,27.13
2018-06-02T11:18:11.916Z,28.60
2018-06-02T11:20:40.427Z,28.30
2018-06-02T11:23:09.497Z,24.93
2018-06-02T11:25:38.444Z,27.70
2018-06-02T11:28:07.489Z,25.80
2018-06-02T11:30:37.594Z,29.50
2018-06-02T11:33:05.993Z,23.93
2018-06-02T11:35:35.177Z,23.03
2018-06-02T11:38:03.546Z,26.43
2018-06-02T11:40:33.800Z,24.83
2018-06-02T11:43:03.893Z,22.03
2018-06-02T11:45:32.962Z,24.70
2018-06-02T11:48:01.749Z,24.57
2018-06-02T11:50:31.597Z,25.07
2018-06-02T11:53:00.149Z,23.50
2018-06-02T11:55:28.537Z,23.07
2018-06-02T11:57:56.901Z,21.37
2018-06-02T12:00:25.282Z,21.93
2018-06-02T12:02:54.470Z,22.33
2018-06-02T12:05:22.865Z,19.90
2018-06-02T12:07:51.323Z,16.60
2018-06-02T12:10:19.702Z,18.40
2018-06-02T12:12:48.089Z,18.33
2018-06-02T12:15:16.482Z,18.83
2018-06-02T12:17:45.188Z,18.20
2018-06-02T12:20:12.885Z,19.10
2018-06-02T12:22:42.057Z,17.77
2018-06-02T12:25:11.618Z,19.75
2018-06-02T12:27:42.873Z,17.87
2018-06-02T12:30:11.270Z,18.47
2018-06-02T12:32:41.216Z,16.40
2018-06-02T12:35:11.821Z,16.43
2018-06-02T12:37:44.748Z,19.90
2018-06-02T12:40:16.271Z,17.30
2018-06-02T12:42:47.303Z,16.50
2018-06-02T12:45:16.457Z,14.13
2018-06-02T12:47:45.864Z,16.13
2018-06-02T12:50:15.478Z,15.67
2018-06-02T12:52:45.122Z,16.80
2018-06-02T12:55:15.089Z,14.50
2018-06-02T12:57:45.738Z,14.07
2018-06-02T13:00:14.257Z,13.73
2018-06-02T13:02:42.608Z,14.00
2018-06-02T13:05:12.349Z,14.23
2018-06-02T13:07:40.728Z,13.20
2018-06-02T13:10:09.206Z,11.53
2018-06-02T13:12:38.438Z,14.27
2018-06-02T13:15:07.609Z,11.60
2018-06-02T13:17:35.940Z,10.40
2018-06-02T13:20:04.333Z,12.57
2018-06-02T13:22:32.701Z,10.15
2018-06-02T13:25:01.256Z,9.50
2018-06-02T13:27:29.593Z,11.93
2018-06-02T13:29:57.946Z,10.60
2018-06-02T13:32:26.382Z,9.80
2018-06-02T13:34:55.488Z,8.63
2018-06-02T13:37:24.729Z,9.50
2018-06-02T13:39:53.183Z,10.53
2018-06-02T13:42:21.820Z,8.73
2018-06-02T13:44:50.260Z,10.23
2018-06-02T13:47:18.635Z,8.73
2018-06-02T13:49:47.065Z,9.60
2018-06-02T13:52:16.988Z,11.27
2018-06-02T13:54:46.199Z,10.60
2018-06-02T13:57:15.945Z,10.20
2018-06-02T13:59:44.363Z,9.97
2018-06-02T14:02:13.497Z,10.90
2018-06-02T14:04:41.936Z,10.70
2018-06-02T14:07:12.089Z,11.37
2018-06-02T14:09:41.258Z,13.70
2018-06-02T14:12:09.931Z,10.37
2018-06-02T14:14:38.307Z,12.13
2018-06-02T14:17:06.682Z,11.70
2018-06-02T14:19:35.085Z,12.37
2018-06-02T14:22:04.335Z,11.70
2018-06-02T14:24:32.743Z,11.80
2018-06-02T14:27:01.128Z,11.60
2018-06-02T14:29:29.525Z,10.93
2018-06-02T14:32:00.436Z,11.40
2018-06-02T14:34:28.793Z,10.57
2018-06-02T14:36:58.112Z,9.73
2018-06-02T14:39:27.197Z,10.20
2018-06-02T14:41:55.548Z,10.07
2018-06-02T14:44:23.886Z,9.83
2018-06-02T14:46:52.225Z,9.53
2018-06-02T14:49:20.633Z,10.88
2018-06-02T14:51:50.582Z,10.03
2018-06-02T14:54:20.402Z,10.70
2018-06-02T14:56:49.626Z,11.60
2018-06-02T14:59:18.241Z,10.45
2018-06-02T15:01:46.607Z,11.57
2018-06-02T15:04:16.660Z,11.55
2018-06-02T15:06:45.786Z,10.60
2018-06-02T15:09:14.133Z,11.70
2018-06-02T15:11:43.305Z,11.87
2018-06-02T15:14:12.252Z,12.70
2018-06-02T15:16:42.458Z,10.80
2018-06-02T15:19:11.744Z,12.67
2018-06-02T15:21:40.903Z,11.47
2018-06-02T15:24:09.278Z,12.43
2018-06-02T15:26:38.454Z,10.60
2018-06-02T15:29:07.794Z,12.33
2018-06-02T15:31:36.126Z,11.53
2018-06-02T15:34:05.257Z,10.73
2018-06-02T15:36:34.612Z,12.67
2018-06-02T15:39:03.041Z,12.97
2018-06-02T15:41:32.133Z,10.97
2018-06-02T15:44:01.482Z,11.37
2018-06-02T15:46:30.696Z,11.10
2018-06-02T15:49:00.629Z,11.47
2018-06-02T15:51:29.823Z,13.27
2018-06-02T15:53:59.111Z,11.97
2018-06-02T15:56:27.602Z,11.50
2018-06-02T15:58:56.002Z,12.37
2018-06-02T16:01:24.678Z,14.53
2018-06-02T16:03:53.057Z,13.90
2018-06-02T16:06:23.199Z,12.97
2018-06-02T16:08:51.745Z,12.57
2018-06-02T16:11:21.186Z,15.70
2018-06-02T16:13:49.950Z,14.50
2018-06-02T16:16:18.376Z,13.97
2018-06-02T16:18:48.206Z,15.60
2018-06-02T16:21:16.726Z,13.47
2018-06-02T16:23:45.843Z,15.37
2018-06-02T16:26:16.599Z,14.07
2018-06-02T16:28:45.503Z,13.60
2018-06-02T16:31:15.424Z,13.23
2018-06-02T16:33:44.318Z,14.30
2018-06-02T16:36:12.810Z,15.73
2018-06-02T16:38:42.677Z,14.23
2018-06-02T16:41:11.778Z,14.90
2018-06-02T16:43:41.014Z,14.57
2018-06-02T16:46:09.526Z,15.87
2018-06-02T16:48:39.371Z,16.60
2018-06-02T16:51:07.745Z,14.80
2018-06-02T16:53:36.104Z,16.00
2018-06-02T16:56:04.627Z,16.60
2018-06-02T16:58:34.069Z,15.27
2018-06-02T17:01:02.456Z,15.80
2018-06-02T17:03:31.767Z,17.20
2018-06-02T17:06:00.147Z,15.70
2018-06-02T17:08:32.009Z,17.30
2018-06-02T17:11:00.393Z,16.10
2018-06-02T17:13:28.779Z,17.50
2018-06-02T17:15:57.215Z,17.80
2018-06-02T17:18:25.719Z,17.07
2018-06-02T17:20:54.110Z,16.87
2018-06-02T17:23:22.484Z,17.40
2018-06-02T17:25:51.962Z,18.10
2018-06-02T17:28:20.433Z,19.87
2018-06-02T17:30:48.785Z,19.60
2018-06-02T17:33:17.205Z,17.10
2018-06-02T17:35:46.601Z,18.33
2018-06-02T17:38:15.055Z,21.00
2018-06-02T17:40:45.045Z,21.60
2018-06-02T17:43:13.393Z,19.43
2018-06-02T17:45:43.231Z,17.67
2018-06-02T17:48:12.915Z,20.97
2018-06-02T17:50:41.906Z,20.33
2018-06-02T17:53:11.151Z,18.97
2018-06-02T17:55:39.506Z,20.57
2018-06-02T17:58:07.969Z,21.27
2018-06-02T18:00:37.211Z,21.17
2018-06-02T18:03:05.953Z,22.37
2018-06-02T18:05:35.137Z,22.67
2018-06-02T18:08:04.425Z,21.63
2018-06-02T18:10:32.799Z,21.37
2018-06-02T18:13:03.041Z,18.93
2018-06-02T18:15:31.397Z,20.87
2018-06-02T18:18:00.965Z,21.13
2018-06-02T18:20:29.312Z,22.37
2018-06-02T18:22:59.508Z,20.53
2018-06-02T18:25:28.620Z,19.13
2018-06-02T18:27:57.067Z,19.57
2018-06-02T18:30:26.210Z,20.50
2018-06-02T18:32:54.549Z,24.17
2018-06-02T18:35:23.665Z,21.77
2018-06-02T18:37:52.639Z,21.63
2018-06-02T18:40:22.615Z,22.33
2018-06-02T18:42:51.250Z,23.83
2018-06-02T18:45:20.453Z,21.70
2018-06-02T18:47:50.345Z,20.33
2018-06-02T18:50:20.388Z,21.57
2018-06-02T18:52:48.802Z,22.17
2018-06-02T18:55:17.467Z,19.67
2018-06-02T18:57:45.845Z,22.20
2018-06-02T19:00:14.216Z,22.17
2018-06-02T19:02:42.851Z,21.20
2018-06-02T19:05:11.689Z,22.37
2018-06-02T19:07:41.256Z,22.30
2018-06-02T19:10:11.743Z,22.80
2018-06-02T19:12:40.105Z,23.17
2018-06-02T19:15:10.150Z,22.47
2018-06-02T19:17:38.998Z,22.07
2018-06-02T19:20:07.486Z,20.87
2018-06-02T19:22:36.119Z,25.83
2018-06-02T19:25:06.026Z,26.27
2018-06-02T19:27:34.642Z,24.43
2018-06-02T19:30:03.802Z,25.57
2018-06-02T19:32:32.968Z,24.53
2018-06-02T19:35:02.420Z,23.73
2018-06-02T19:37:31.488Z,22.70
2018-06-02T19:40:00.771Z,20.40
2018-06-02T19:42:29.135Z,22.33
2018-06-02T19:44:58.156Z,23.20
2018-06-02T19:47:27.530Z,23.90
2018-06-02T19:49:55.932Z,21.20
2018-06-02T19:52:25.499Z,23.70
2018-06-02T19:54:55.924Z,23.07
2018-06-02T19:57:25.161Z,25.10
2018-06-02T19:59:53.560Z,22.93
2018-06-02T20:02:22.932Z,25.70
2018-06-02T20:04:51.292Z,23.93
2018-06-02T20:07:20.426Z,27.47
2018-06-02T20:09:49.291Z,24.73
2018-06-02T20:12:17.675Z,23.70
2018-06-02T20:14:46.208Z,28.97
2018-06-02T20:17:14.608Z,26.53
2018-06-02T20:19:43.757Z,24.67
2018-06-02T20:22:13.202Z,26.87
2018-06-02T20:24:44.714Z,28.27
2018-06-02T20:27:13.156Z,25.97
2018-06-02T20:29:43.340Z,23.30
2018-06-02T20:32:13.330Z,28.30
2018-06-02T20:34:41.854Z,29.23
2018-06-02T20:37:10.261Z,26.87
2018-06-02T20:39:39.474Z,27.93
2018-06-02T20:42:08.643Z,29.67
2018-06-02T20:44:37.744Z,25.87
2018-06-02T20:47:07.318Z,28.90
2018-06-02T20:49:36.175Z,29.20
2018-06-02T20:52:05.822Z,27.37
2018-06-02T20:54:34.203Z,24.57
2018-06-02T20:57:03.385Z,29.17
2018-06-02T20:59:32.864Z,26.00
2018-06-02T21:02:01.219Z,28.67
2018-06-02T21:04:29.578Z,27.97
2018-06-02T21:06:58.884Z,31.50
2018-06-02T21:09:28.153Z,25.57
2018-06-02T21:11:56.541Z,30.33
2018-06-02T21:14:24.937Z,29.47
2018-06-02T21:16:55.011Z,29.70
2018-06-02T21:19:23.424Z,33.47
2018-06-02T21:21:52.604Z,30.43
2018-06-02T21:24:22.392Z,29.47
2018-06-02T21:26:50.910Z,27.67
2018-06-02T21:29:19.664Z,27.48
2018-06-02T21:31:48.282Z,27.80
2018-06-02T21:34:17.669Z,29.10
2018-06-02T21:36:46.884Z,27.90
2018-06-02T21:39:16.158Z,28.83
2018-06-02T21:41:45.511Z,30.70
2018-06-02T21:44:15.393Z,28.30
2018-06-02T21:46:45.288Z,29.73
2018-06-02T21:49:13.660Z,30.80
2018-06-02T21:51:43.291Z,31.70
2018-06-02T21:54:11.642Z,29.63
2018-06-02T21:56:40.014Z,31.73
2018-06-02T21:59:08.425Z,27.63
2018-06-02T22:01:36.786Z,28.63
2018-06-02T22:04:05.186Z,34.47
2018-06-02T22:06:34.323Z,31.17
2018-06-02T22:09:02.697Z,32.70
2018-06-02T22:11:32.602Z,30.40
2018-06-02T22:14:04.774Z,36.47
2018-06-02T22:16:34.826Z,34.03
2018-06-02T22:19:04.338Z,32.93
2018-06-02T22:21:32.684Z,32.50
2018-06-02T22:24:01.871Z,31.80
2018-06-02T22:26:31.789Z,32.17
2018-06-02T22:29:00.930Z,40.07
2018-06-02T22:31:30.317Z,35.30
2018-06-02T22:33:59.214Z,37.97
2018-06-02T22:36:28.215Z,38.97
2018-06-02T22:38:57.497Z,39.50
2018-06-02T22:41:26.699Z,36.93
2018-06-02T22:43:55.536Z,38.77
2018-06-02T22:46:23.965Z,37.27
2018-06-02T22:48:52.307Z,38.50
2018-06-02T22:51:39.167Z,35.83
2018-06-02T22:54:07.604Z,34.27
2018-06-02T22:56:37.647Z,39.80
2018-06-02T22:59:06.765Z,33.60
2018-06-02T23:01:35.872Z,38.60
2018-06-02T23:04:05.855Z,38.90
2018-06-02T23:06:34.242Z,38.23
2018-06-02T23:09:05.352Z,36.07
2018-06-02T23:11:35.259Z,37.53
2018-06-02T23:14:05.544Z,39.63
2018-06-02T23:16:34.837Z,40.23
2018-06-02T23:19:03.929Z,39.47
2018-06-02T23:21:32.286Z,41.40
2018-06-02T23:24:01.241Z,39.63
2018-06-02T23:26:30.464Z,38.20
2018-06-02T23:29:00.512Z,39.37
2018-06-02T23:31:29.639Z,39.53
2018-06-02T23:33:58.024Z,40.03
2018-06-02T23:36:26.379Z,34.43
2018-06-02T23:38:54.817Z,35.83
2018-06-02T23:41:23.320Z,41.17
2018-06-02T23:43:51.717Z,39.87
2018-06-02T23:46:20.054Z,37.77
2018-06-02T23:48:49.353Z,39.37
2018-06-02T23:51:20.402Z,36.93
2018-06-02T23:53:49.419Z,39.03
2018-06-02T23:56:18.828Z,40.57
2018-06-02T23:58:47.226Z,38.97
